Información del aeropuerto LIMF

Información de pista
Pista 18 Longitud 10827 ft Anchura 197 ft
Elevación 981 ft Umbral 2378 ft Rumbo 183
Pista 36 Longitud 10827 ft Anchura 197 ft
Elevación 933 ft Umbral 1148 ft Rumbo 3
Frecuencias del aeropuerto
Tipo APP Nombre APP Frecuencia 23.44 MHZ
Tipo APP Nombre APP Frecuencia 129.275 MHZ
Tipo ATIS Nombre ATIS Frecuencia 120.475 MHZ
Tipo GND Nombre GND Frecuencia 121.7 MHZ
Tipo TWR Nombre TWR Frecuencia 118.5 MHZ
Radioayudas del aeropuerto
Tipo TACAN Nombre Caselle Frecuencia 109500 KHZ
Tipo NDB Nombre Caselle Frecuencia 357 KHZ
Tipo VOR-DME Nombre Caselle Frecuencia 116750 KHZ
Tipo VOR-DME Nombre Torino Frecuencia 114500 KHZ
Tipo NDB Nombre Torino Frecuencia 393 KHZ
Información meteorológica del aeropuerto y NOTAM
ADDS - METARS form results

(0237 UTC 23 January 2022)
Data provider http://aviationweather.gov/metar/data/
 
METAR text: LIMF 230220Z 04008KT CAVOK 01/M04 Q1027
Conditions at: LIMF (TORINO/CASELLE , IT) observed 0220 UTC 23 January 2022
Temperature: 1.0°C (34°F)
Dewpoint: -4.0°C (25°F) [RH = 69%]
Pressure (altimeter): 30.32 inches Hg (1027.0 mb)
Winds: from the NE (40 degrees) at 9 MPH (8 knots; 4.1 m/s)
Visibility: 6 or more miles (10+ km)
Ceiling: ceiling and visibility are OK
Clouds: unknown
Weather: no significant weather observed at this time

METAR text: LIMF 230150Z 02003KT 330V050 CAVOK 01/M05 Q1026
Conditions at: LIMF (TORINO/CASELLE , IT) observed 0150 UTC 23 January 2022
Temperature: 1.0°C (34°F)
Dewpoint: -5.0°C (23°F) [RH = 64%]
Pressure (altimeter): 30.30 inches Hg (1026.0 mb)
Winds: from the NNE (20 degrees) at 3 MPH (3 knots; 1.5 m/s)
Visibility: 6 or more miles (10+ km)
Ceiling: ceiling and visibility are OK
Clouds: unknown
Weather: no significant weather observed at this time

Forecast for: LIMF (TORINO/CASELLE , IT)
Text: TAF LIMF 222300Z 2300/2324 VRB05KT CAVOK
Forecast period: 0000 UTC 23 January 2022 to 0000 UTC 24 January 2022
Forecast type: FROM: standard forecast or significant change
Winds: variable direction winds at 6 MPH (5 knots; 2.6 m/s)
Visibility: 6 or more miles (10+ km)
Ceiling: unknown
Clouds: missing
Weather: NSW  (no significant weather)